createdAt,value
2023-01-01T00:00:45.171Z,29.95
2023-01-01T00:03:12.480Z,30.40
2023-01-01T00:05:40.390Z,29.58
2023-01-01T00:08:07.984Z,29.83
2023-01-01T00:10:35.274Z,29.25
2023-01-01T00:13:02.552Z,29.83
2023-01-01T00:15:29.956Z,28.75
2023-01-01T00:17:57.840Z,28.25
2023-01-01T00:20:29.964Z,28.60
2023-01-01T00:23:00.563Z,27.88
2023-01-01T00:25:27.915Z,26.90
2023-01-01T00:27:56.733Z,25.00
2023-01-01T00:30:25.088Z,25.40
2023-01-01T00:32:55.430Z,25.83
2023-01-01T00:35:24.527Z,26.40
2023-01-01T00:37:52.413Z,25.50
2023-01-01T00:40:19.886Z,23.77
2023-01-01T00:42:47.179Z,22.90
2023-01-01T00:45:20.997Z,23.95
2023-01-01T00:47:53.104Z,22.70
2023-01-01T00:50:21.611Z,22.48
2023-01-01T00:52:49.328Z,22.00
2023-01-01T00:55:17.123Z,23.85
2023-01-01T00:57:44.512Z,21.50
2023-01-01T01:00:12.830Z,22.02
2023-01-01T01:02:40.380Z,22.33
2023-01-01T01:05:08.329Z,22.40
2023-01-01T01:07:38.127Z,19.60
2023-01-01T01:10:06.107Z,21.42
2023-01-01T01:12:35.476Z,20.08
2023-01-01T01:15:03.403Z,20.20
2023-01-01T01:17:30.730Z,19.15
2023-01-01T01:19:58.077Z,20.45
2023-01-01T01:22:28.769Z,17.73
2023-01-01T01:24:57.297Z,18.80
2023-01-01T01:27:24.802Z,18.02
2023-01-01T01:29:52.493Z,18.02
2023-01-01T01:32:20.114Z,17.02
2023-01-01T01:34:48.587Z,16.48
2023-01-01T01:37:15.944Z,16.55
2023-01-01T01:39:43.257Z,15.75
2023-01-01T01:42:18.406Z,17.08
2023-01-01T01:44:54.231Z,16.27
2023-01-01T01:47:21.442Z,15.93
2023-01-01T01:49:51.253Z,15.95
2023-01-01T01:52:18.524Z,15.85
2023-01-01T01:54:46.339Z,15.25
2023-01-01T01:57:14.629Z,14.75
2023-01-01T01:59:47.750Z,14.93
2023-01-01T02:02:34.614Z,14.18
2023-01-01T02:05:02.746Z,13.43
2023-01-01T02:07:32.774Z,13.60
2023-01-01T02:10:01.456Z,13.60
2023-01-01T02:12:28.950Z,13.00
2023-01-01T02:14:56.517Z,11.93
2023-01-01T02:17:39.003Z,12.35
2023-01-01T02:20:26.631Z,11.40
2023-01-01T02:23:21.764Z,12.77
2023-01-01T02:26:03.954Z,11.73
2023-01-01T02:29:03.749Z,11.77
2023-01-01T02:31:37.947Z,11.18
2023-01-01T02:34:10.932Z,11.35
2023-01-01T02:36:44.064Z,11.70
2023-01-01T02:39:13.853Z,10.98
2023-01-01T02:41:47.069Z,10.75
2023-01-01T02:44:15.282Z,10.65
2023-01-01T02:46:42.575Z,10.80
2023-01-01T02:49:11.649Z,10.88
2023-01-01T02:52:01.329Z,9.25
2023-01-01T02:54:42.171Z,9.93
2023-01-01T02:57:32.384Z,9.60
2023-01-01T03:00:19.387Z,9.93
2023-01-01T03:02:59.130Z,9.88
2023-01-01T03:06:15.956Z,9.57
2023-01-01T03:09:08.115Z,9.30
2023-01-01T03:11:56.449Z,9.68
2023-01-01T03:15:06.912Z,9.20
2023-01-01T03:17:39.316Z,9.18
2023-01-01T03:20:16.464Z,9.48
2023-01-01T03:25:16.521Z,9.27
2023-01-01T03:27:49.813Z,9.55
2023-01-01T03:30:20.057Z,8.20
2023-01-01T03:33:01.524Z,8.40
2023-01-01T03:35:37.461Z,8.05
2023-01-01T03:38:10.860Z,7.93
2023-01-01T03:40:39.804Z,8.32
2023-01-01T03:43:14.003Z,7.90
2023-01-01T03:45:49.765Z,7.38
2023-01-01T03:48:17.227Z,7.20
2023-01-01T03:51:17.514Z,7.20
2023-01-01T03:53:45.080Z,7.10
2023-01-01T03:56:37.468Z,7.60
2023-01-01T03:59:30.026Z,7.03
2023-01-01T04:02:03.102Z,7.00
2023-01-01T04:04:31.549Z,6.43
2023-01-01T04:07:09.283Z,6.65
2023-01-01T04:09:47.127Z,6.70
2023-01-01T04:12:16.653Z,6.30
2023-01-01T04:14:44.368Z,5.88
2023-01-01T04:17:13.126Z,6.65
2023-01-01T04:19:40.382Z,6.20
2023-01-01T04:22:07.788Z,6.00
2023-01-01T04:24:35.187Z,5.75
2023-01-01T04:27:02.486Z,6.38
2023-01-01T04:29:29.853Z,5.60
2023-01-01T04:31:57.092Z,6.25
2023-01-01T04:34:24.794Z,5.78
2023-01-01T04:36:52.079Z,5.22
2023-01-01T04:39:19.298Z,5.30
2023-01-01T04:41:47.922Z,5.63
2023-01-01T04:44:15.184Z,5.00
2023-01-01T04:46:42.712Z,4.80
2023-01-01T04:49:10.050Z,5.10
2023-01-01T04:51:37.376Z,4.68
2023-01-01T04:54:04.733Z,4.72
2023-01-01T04:56:32.012Z,4.68
2023-01-01T04:58:59.302Z,4.47
2023-01-01T05:01:30.758Z,4.55
2023-01-01T05:03:59.032Z,4.63
2023-01-01T05:06:27.372Z,4.47
2023-01-01T05:08:55.932Z,4.53
2023-01-01T05:11:28.286Z,4.28
2023-01-01T05:13:58.549Z,4.10
2023-01-01T05:16:28.334Z,4.20
2023-01-01T05:18:56.610Z,4.03
2023-01-01T05:21:31.671Z,4.22
2023-01-01T05:24:01.387Z,3.70
2023-01-01T05:26:31.853Z,4.18
2023-01-01T05:29:00.557Z,3.90
2023-01-01T05:31:30.690Z,3.75
2023-01-01T05:36:30.753Z,3.55
2023-01-01T05:38:59.136Z,3.92
2023-01-01T05:41:27.065Z,3.42
2023-01-01T05:43:54.668Z,3.60
2023-01-01T05:46:23.943Z,3.47
2023-01-01T05:48:53.364Z,3.53
2023-01-01T05:51:25.821Z,3.72
2023-01-01T05:53:54.990Z,3.53
2023-01-01T05:56:22.822Z,3.35
2023-01-01T05:58:50.208Z,3.00
2023-01-01T06:01:21.181Z,3.85
2023-01-01T06:03:49.030Z,3.47
2023-01-01T06:06:19.392Z,3.17
2023-01-01T06:09:01.156Z,2.88
2023-01-01T06:11:28.624Z,3.40
2023-01-01T06:13:58.096Z,3.58
2023-01-01T06:16:27.063Z,2.90
2023-01-01T06:18:54.677Z,2.90
2023-01-01T06:21:24.697Z,2.85
2023-01-01T06:23:52.579Z,2.97
2023-01-01T06:26:23.325Z,2.70
2023-01-01T06:28:51.713Z,3.10
2023-01-01T06:31:21.708Z,3.03
2023-01-01T06:33:50.878Z,2.80
2023-01-01T06:36:21.204Z,2.53
2023-01-01T06:38:51.501Z,2.50
2023-01-01T06:41:21.592Z,2.67
2023-01-01T06:43:49.780Z,2.70
2023-01-01T06:46:19.730Z,2.40
2023-01-01T06:48:49.040Z,2.33
2023-01-01T06:51:22.016Z,2.70
2023-01-01T06:53:51.052Z,2.67
2023-01-01T06:56:19.314Z,2.83
2023-01-01T06:58:46.788Z,2.22
2023-01-01T07:01:17.264Z,2.58
2023-01-01T07:03:50.371Z,2.65
2023-01-01T07:06:17.688Z,2.70
2023-01-01T07:08:44.944Z,2.67
2023-01-01T07:11:12.378Z,2.05
2023-01-01T07:13:39.658Z,2.17
2023-01-01T07:16:12.613Z,2.42
2023-01-01T07:18:40.738Z,2.20
2023-01-01T07:21:32.680Z,2.40
2023-01-01T07:24:02.381Z,2.00
2023-01-01T07:26:30.932Z,1.90
2023-01-01T07:29:04.545Z,2.00
2023-01-01T07:31:35.086Z,2.30
2023-01-01T07:34:02.651Z,2.20
2023-01-01T07:36:30.021Z,2.03
2023-01-01T07:38:57.270Z,1.98
2023-01-01T07:41:24.577Z,2.08
2023-01-01T07:43:51.842Z,2.10
2023-01-01T07:46:19.420Z,1.77
2023-01-01T07:48:46.855Z,1.85
2023-01-01T07:51:14.229Z,2.10
2023-01-01T07:53:41.527Z,1.98
2023-01-01T07:56:09.326Z,1.98
2023-01-01T07:58:40.439Z,1.80
2023-01-01T08:01:13.600Z,2.22
2023-01-01T08:03:41.084Z,1.92
2023-01-01T08:06:10.322Z,2.05
2023-01-01T08:08:38.110Z,2.00
2023-01-01T08:11:06.113Z,2.13
2023-01-01T08:13:33.385Z,2.33
2023-01-01T08:16:00.834Z,2.03
2023-01-01T08:18:28.200Z,2.70
2023-01-01T08:20:57.500Z,2.88
2023-01-01T08:23:24.950Z,2.65
2023-01-01T08:25:52.182Z,3.10
2023-01-01T08:28:19.546Z,2.80
2023-01-01T08:30:46.807Z,3.50
2023-01-01T08:33:14.171Z,3.70
2023-01-01T08:35:43.055Z,3.97
2023-01-01T08:38:12.541Z,4.13
2023-01-01T08:40:40.085Z,4.22
2023-01-01T08:43:07.565Z,5.05
2023-01-01T08:45:34.904Z,4.95
2023-01-01T08:48:02.206Z,5.10
2023-01-01T08:50:29.486Z,5.68
2023-01-01T08:52:59.124Z,5.72
2023-01-01T08:55:26.657Z,6.03
2023-01-01T08:57:53.935Z,6.82
2023-01-01T09:00:21.736Z,6.40
2023-01-01T09:02:49.079Z,7.15
2023-01-01T09:05:16.540Z,7.03
2023-01-01T09:07:43.858Z,8.10
2023-01-01T09:10:11.142Z,8.20
2023-01-01T09:12:38.475Z,8.40
2023-01-01T09:15:06.584Z,8.52
2023-01-01T09:17:33.929Z,9.60
2023-01-01T09:20:01.430Z,9.38
2023-01-01T09:22:28.678Z,10.15
2023-01-01T09:24:55.993Z,10.50
2023-01-01T09:27:23.309Z,11.32
2023-01-01T09:29:50.625Z,11.55
2023-01-01T09:32:18.684Z,10.80
2023-01-01T09:34:50.477Z,10.80
2023-01-01T09:37:19.798Z,11.57
2023-01-01T09:39:47.423Z,10.45
2023-01-01T09:42:33.559Z,11.23
2023-01-01T09:45:12.538Z,11.02
2023-01-01T09:47:54.255Z,11.20
2023-01-01T09:50:37.187Z,11.07
2023-01-01T09:53:12.119Z,12.77
2023-01-01T09:55:56.309Z,13.93
2023-01-01T09:58:43.906Z,12.73
2023-01-01T10:01:46.036Z,13.68
2023-01-01T10:04:28.553Z,13.80
2023-01-01T10:07:19.734Z,13.60
2023-01-01T10:10:23.883Z,13.40
2023-01-01T10:13:18.094Z,13.75
2023-01-01T10:15:57.407Z,14.80
2023-01-01T10:18:29.953Z,13.85
2023-01-01T10:21:03.647Z,13.40
2023-01-01T10:23:39.449Z,12.93
2023-01-01T10:26:15.869Z,12.52
2023-01-01T10:28:47.065Z,12.70
2023-01-01T10:31:34.696Z,13.50
2023-01-01T10:34:34.457Z,13.13
2023-01-01T10:37:02.569Z,13.07
2023-01-01T10:39:30.023Z,13.10
2023-01-01T10:41:58.852Z,12.70
2023-01-01T10:44:32.047Z,12.57
2023-01-01T10:47:05.038Z,13.68
2023-01-01T10:49:32.358Z,14.13
2023-01-01T10:51:59.734Z,15.07
2023-01-01T10:54:34.687Z,13.15
2023-01-01T10:57:20.217Z,14.00
2023-01-01T10:59:53.845Z,13.80
2023-01-01T11:02:26.580Z,14.38
2023-01-01T11:05:22.256Z,13.75
2023-01-01T11:07:50.162Z,13.98
2023-01-01T11:10:23.391Z,14.25
2023-01-01T11:13:08.125Z,14.18
2023-01-01T11:15:38.250Z,14.68
2023-01-01T11:18:15.266Z,14.40
2023-01-01T11:20:43.710Z,14.20
2023-01-01T11:23:33.896Z,14.93
2023-01-01T11:26:24.653Z,15.20
2023-01-01T11:29:28.299Z,14.95
2023-01-01T11:31:57.099Z,14.93
2023-01-01T11:34:41.209Z,17.25
2023-01-01T11:37:30.034Z,16.87
2023-01-01T11:39:58.859Z,17.63
2023-01-01T11:42:28.796Z,17.83
2023-01-01T11:44:59.408Z,18.27
2023-01-01T11:47:36.651Z,18.38
2023-01-01T11:50:22.488Z,18.63
2023-01-01T11:52:54.737Z,18.95
2023-01-01T11:55:31.172Z,19.45
2023-01-01T11:58:25.971Z,18.80
2023-01-01T12:01:12.463Z,19.27
2023-01-01T12:04:01.785Z,19.23
2023-01-01T12:06:49.117Z,21.27
2023-01-01T12:09:29.341Z,20.58
2023-01-01T12:12:13.237Z,18.73
2023-01-01T12:14:59.058Z,17.48
2023-01-01T12:17:49.887Z,16.73
2023-01-01T12:20:29.120Z,19.48
2023-01-01T12:22:58.875Z,18.48
2023-01-01T12:25:38.756Z,18.95
2023-01-01T12:28:29.813Z,19.67
2023-01-01T12:31:10.343Z,21.17
2023-01-01T12:34:01.119Z,21.02
2023-01-01T12:36:31.501Z,20.25
2023-01-01T12:39:32.855Z,19.98
2023-01-01T12:42:33.728Z,20.83
2023-01-01T12:45:31.998Z,20.25
2023-01-01T12:47:59.249Z,19.77
2023-01-01T12:50:49.514Z,20.92
2023-01-01T12:54:00.737Z,21.90
2023-01-01T12:56:45.189Z,20.15
2023-01-01T12:59:22.518Z,20.40
2023-01-01T13:01:51.549Z,20.80
2023-01-01T13:04:21.599Z,20.85
2023-01-01T13:07:09.587Z,21.85
2023-01-01T13:09:45.140Z,21.52
2023-01-01T13:12:17.398Z,21.08
2023-01-01T13:14:46.960Z,19.83
2023-01-01T13:17:29.481Z,21.75
2023-01-01T13:20:19.657Z,20.15
2023-01-01T13:22:48.544Z,19.65
2023-01-01T13:25:16.108Z,19.65
2023-01-01T13:28:03.124Z,19.00
2023-01-01T13:30:39.694Z,18.55
2023-01-01T13:33:31.097Z,17.60
2023-01-01T13:36:11.816Z,18.35
2023-01-01T13:38:56.591Z,16.73
2023-01-01T13:41:46.260Z,16.50
2023-01-01T13:44:19.791Z,15.23
2023-01-01T13:47:30.261Z,15.95
2023-01-01T13:50:15.866Z,15.15
2023-01-01T13:53:09.114Z,15.73
2023-01-01T13:55:57.900Z,15.57
2023-01-01T13:58:55.711Z,15.57
2023-01-01T14:01:44.728Z,15.45
2023-01-01T14:04:54.226Z,15.95
2023-01-01T14:07:51.667Z,14.93
2023-01-01T14:10:37.619Z,15.02
2023-01-01T14:13:10.654Z,15.40
2023-01-01T14:15:59.317Z,15.80
2023-01-01T14:18:40.380Z,14.02
2023-01-01T14:21:16.035Z,14.50
2023-01-01T14:23:50.113Z,15.57
2023-01-01T14:26:23.118Z,14.55
2023-01-01T14:28:58.480Z,14.10
2023-01-01T14:31:34.647Z,14.57
2023-01-01T14:34:13.188Z,14.07
2023-01-01T14:36:51.350Z,14.27
2023-01-01T14:39:27.986Z,13.23
2023-01-01T14:42:08.739Z,13.40
2023-01-01T14:44:42.523Z,13.18
2023-01-01T14:47:28.966Z,13.90
2023-01-01T14:50:02.764Z,12.90
2023-01-01T14:52:31.462Z,13.33
2023-01-01T14:55:00.508Z,13.60
2023-01-01T14:57:31.293Z,13.60
2023-01-01T14:59:58.790Z,12.73
2023-01-01T15:02:37.627Z,11.93
2023-01-01T15:05:37.444Z,12.45
2023-01-01T15:08:07.687Z,12.32
2023-01-01T15:10:38.064Z,12.43
2023-01-01T15:13:07.310Z,12.25
2023-01-01T15:15:47.175Z,12.13
2023-01-01T15:18:36.174Z,12.02
2023-01-01T15:21:07.541Z,11.60
2023-01-01T15:23:36.082Z,12.15
2023-01-01T15:26:07.284Z,11.93
2023-01-01T15:28:35.345Z,11.70
2023-01-01T15:31:02.700Z,11.63
2023-01-01T15:33:30.014Z,11.95
2023-01-01T15:36:02.776Z,11.68
2023-01-01T15:38:34.566Z,11.07
2023-01-01T15:41:22.124Z,11.38
2023-01-01T15:43:49.390Z,11.70
2023-01-01T15:46:22.665Z,11.40
2023-01-01T15:51:24.799Z,11.57
2023-01-01T15:54:01.532Z,12.02
2023-01-01T15:56:32.265Z,11.65
2023-01-01T15:59:36.345Z,11.65
2023-01-01T16:02:30.278Z,11.63
2023-01-01T16:04:58.037Z,11.45
2023-01-01T16:07:27.189Z,12.32
2023-01-01T16:09:58.119Z,12.10
2023-01-01T16:12:25.621Z,12.13
2023-01-01T16:14:52.956Z,12.50
2023-01-01T16:17:21.222Z,13.27
2023-01-01T16:19:51.567Z,12.88
2023-01-01T16:22:20.100Z,11.82
2023-01-01T16:24:47.414Z,12.40
2023-01-01T16:27:14.686Z,12.07
2023-01-01T16:29:43.547Z,13.27
2023-01-01T16:32:18.315Z,12.77
2023-01-01T16:34:45.835Z,12.90
2023-01-01T16:37:13.267Z,13.50
2023-01-01T16:39:40.521Z,13.07
2023-01-01T16:42:11.919Z,13.80
2023-01-01T16:44:42.370Z,12.90
2023-01-01T16:47:10.500Z,13.52
2023-01-01T16:49:37.906Z,12.75
2023-01-01T16:52:05.394Z,13.27
2023-01-01T16:54:33.561Z,12.55
2023-01-01T16:57:00.945Z,13.48
2023-01-01T16:59:28.184Z,13.20
2023-01-01T17:01:55.543Z,13.40
2023-01-01T17:04:22.978Z,13.48
2023-01-01T17:06:50.253Z,13.82
2023-01-01T17:09:17.606Z,13.13
2023-01-01T17:11:46.033Z,13.18
2023-01-01T17:14:13.300Z,12.77
2023-01-01T17:16:40.671Z,13.23
2023-01-01T17:19:15.499Z,13.48
2023-01-01T17:21:45.423Z,12.73
2023-01-01T17:24:12.887Z,13.43
2023-01-01T17:26:40.132Z,13.15
2023-01-01T17:29:07.691Z,13.05
2023-01-01T17:31:35.265Z,12.65
2023-01-01T17:34:02.559Z,13.30
2023-01-01T17:36:30.399Z,12.30
2023-01-01T17:38:57.770Z,12.27
2023-01-01T17:41:25.705Z,12.68
2023-01-01T17:43:53.128Z,12.43
2023-01-01T17:46:31.096Z,12.98
2023-01-01T17:48:59.011Z,13.00
2023-01-01T17:51:26.831Z,12.65
2023-01-01T17:53:55.226Z,11.85
2023-01-01T17:56:23.474Z,13.43
2023-01-01T17:58:52.792Z,12.60
2023-01-01T18:01:23.252Z,12.52
2023-01-01T18:03:52.866Z,11.35
2023-01-01T18:06:20.434Z,11.70
2023-01-01T18:08:48.085Z,12.43
2023-01-01T18:11:15.408Z,11.52
2023-01-01T18:13:42.695Z,11.18
2023-01-01T18:16:10.563Z,11.15
2023-01-01T18:18:40.035Z,11.38
2023-01-01T18:21:11.381Z,11.55
2023-01-01T18:23:40.234Z,10.82
2023-01-01T18:26:09.736Z,10.85
2023-01-01T18:28:37.249Z,10.95
2023-01-01T18:31:16.886Z,11.20
2023-01-01T18:33:46.791Z,11.13
2023-01-01T18:36:17.080Z,10.02
2023-01-01T18:39:15.004Z,11.25
2023-01-01T18:42:14.316Z,10.90
2023-01-01T18:44:41.674Z,10.52
2023-01-01T18:47:17.982Z,11.40
2023-01-01T18:50:07.893Z,10.65
2023-01-01T18:52:35.364Z,11.13
2023-01-01T18:55:10.422Z,10.73
2023-01-01T18:57:38.369Z,11.57
2023-01-01T19:00:24.100Z,11.27
2023-01-01T19:03:02.942Z,11.30
2023-01-01T19:05:31.465Z,11.50
2023-01-01T19:08:07.733Z,11.20
2023-01-01T19:10:59.209Z,11.68
2023-01-01T19:13:38.104Z,12.40
2023-01-01T19:16:11.666Z,11.80
2023-01-01T19:18:44.145Z,11.88
2023-01-01T19:21:11.399Z,12.32
2023-01-01T19:23:55.052Z,12.00
2023-01-01T19:26:48.674Z,12.00
2023-01-01T19:29:24.201Z,12.20
2023-01-01T19:31:56.140Z,11.68
2023-01-01T19:34:25.018Z,12.80
2023-01-01T19:36:52.435Z,12.40
2023-01-01T19:39:19.917Z,12.32
2023-01-01T19:41:47.640Z,12.65
2023-01-01T19:44:19.845Z,12.23
2023-01-01T19:46:50.538Z,12.55
2023-01-01T19:49:17.792Z,12.88
2023-01-01T19:51:45.148Z,11.95
2023-01-01T19:54:12.430Z,12.48
2023-01-01T19:56:39.732Z,11.38
2023-01-01T19:59:08.379Z,12.02
2023-01-01T20:01:36.064Z,11.98
2023-01-01T20:04:03.693Z,14.00
2023-01-01T20:06:31.239Z,13.88
2023-01-01T20:08:58.585Z,13.88
2023-01-01T20:11:29.636Z,12.80
2023-01-01T20:13:57.010Z,14.13
2023-01-01T20:16:24.377Z,14.52
2023-01-01T20:18:51.690Z,14.00
2023-01-01T20:21:37.486Z,13.43
2023-01-01T20:24:05.141Z,14.18
2023-01-01T20:29:20.898Z,14.18
2023-01-01T20:31:53.526Z,13.98
2023-01-01T20:34:21.822Z,14.70
2023-01-01T20:37:08.152Z,14.18
2023-01-01T20:39:35.719Z,13.93
2023-01-01T20:42:03.540Z,13.25
2023-01-01T20:44:31.328Z,14.00
2023-01-01T20:46:58.922Z,14.20
2023-01-01T20:49:26.247Z,13.98
2023-01-01T20:51:54.086Z,14.07
2023-01-01T20:54:22.764Z,13.40
2023-01-01T20:56:50.692Z,15.23
2023-01-01T20:59:34.683Z,14.40
2023-01-01T21:02:04.095Z,13.63
2023-01-01T21:17:40.138Z,12.65
2023-01-01T21:20:08.438Z,13.02
2023-01-01T21:22:35.902Z,14.65
2023-01-01T21:25:49.919Z,14.70
2023-01-01T21:28:15.656Z,14.55
2023-01-01T21:30:49.896Z,14.05
2023-01-01T21:33:28.657Z,13.73
2023-01-01T21:35:56.505Z,14.50
2023-01-01T21:38:26.733Z,14.45
2023-01-01T21:40:59.534Z,13.52
2023-01-01T21:43:31.505Z,14.60
2023-01-01T21:46:07.701Z,14.10
2023-01-01T21:49:12.111Z,14.50
2023-01-01T21:51:59.824Z,14.65
2023-01-01T21:54:32.688Z,14.63
2023-01-01T21:57:01.960Z,15.27
2023-01-01T21:59:44.010Z,14.50
2023-01-01T22:02:14.376Z,14.82
2023-01-01T22:04:44.507Z,15.20
2023-01-01T22:10:16.590Z,15.82
2023-01-01T22:12:44.092Z,15.38
2023-01-01T22:15:32.863Z,15.38
2023-01-01T22:18:12.282Z,15.90
2023-01-01T22:20:43.178Z,14.57
2023-01-01T22:23:23.215Z,15.05
2023-01-01T22:25:51.485Z,15.52
2023-01-01T22:28:27.877Z,14.85
2023-01-01T22:31:00.794Z,14.38
2023-01-01T22:33:38.792Z,15.35
2023-01-01T22:36:17.803Z,14.98
2023-01-01T22:38:45.537Z,14.90
2023-01-01T22:41:14.889Z,14.50
2023-01-01T22:43:45.400Z,14.13
2023-01-01T22:46:38.990Z,14.57
2023-01-01T22:49:39.374Z,14.15
2023-01-01T22:52:07.887Z,15.13
2023-01-01T22:54:35.174Z,13.95
2023-01-01T22:57:02.631Z,14.85
2023-01-01T22:59:30.004Z,13.75
2023-01-01T23:01:57.388Z,13.73
2023-01-01T23:04:24.864Z,13.95
2023-01-01T23:06:52.960Z,13.73
2023-01-01T23:09:20.725Z,13.32
2023-01-01T23:11:47.988Z,14.35
2023-01-01T23:14:38.668Z,13.73
2023-01-01T23:17:06.634Z,13.48
2023-01-01T23:19:33.953Z,13.77
2023-01-01T23:22:03.610Z,12.70
2023-01-01T23:24:31.827Z,13.15
2023-01-01T23:27:00.505Z,13.48
2023-01-01T23:29:31.020Z,13.40
2023-01-01T23:31:59.201Z,12.98
2023-01-01T23:34:26.468Z,13.43
2023-01-01T23:36:55.344Z,11.85
2023-01-01T23:39:22.600Z,12.27
2023-01-01T23:41:51.033Z,12.45
2023-01-01T23:44:18.574Z,11.90
2023-01-01T23:46:46.265Z,12.25
2023-01-01T23:49:13.939Z,12.23
2023-01-01T23:51:41.462Z,12.23
2023-01-01T23:54:08.833Z,12.63
2023-01-01T23:56:36.352Z,11.88
2023-01-01T23:59:03.710Z,11.32
